Time;durP1;ratioP1;P1;durP2;ratioP2;P2;SDS_P1;SDS_P2;PMS_P1;PMS_P2;Temp;Humidity;BMP_temperature;BMP_pressure;BME280_temperature;BME280_humidity;BME280_pressure;Samples;Min_cycle;Max_cycle;Signal;HPM_P1;HPM_P2
2021/11/12 00:13:06;;;;;;;103.38;54.92;;;8.50;99.90;;;;;;5040445;28;20913;-85
2021/11/12 00:15:41;;;;;;;101.55;54.92;;;8.50;99.90;;;;;;5044419;28;20933;-85
2021/11/12 00:18:07;;;;;;;106.22;57.40;;;8.50;99.90;;;;;;5027326;28;20451;-85
2021/11/12 00:20:33;;;;;;;112.65;58.28;;;8.50;99.90;;;;;;5031216;28;20381;-85
2021/11/12 00:22:58;;;;;;;103.50;54.63;;;8.50;99.90;;;;;;5014300;28;20401;-85
2021/11/12 00:25:24;;;;;;;101.03;55.10;;;8.50;99.90;;;;;;5030491;28;20455;-85
2021/11/12 00:27:50;;;;;;;105.47;57.37;;;8.50;99.90;;;;;;5014609;28;20388;-85
2021/11/12 00:33:39;;;;;;;117.68;58.67;;;8.60;99.90;;;;;;5049990;28;20905;-85
2021/11/12 00:35:39;;;;;;;121.38;60.20;;;8.60;99.90;;;;;;5027673;28;20401;-85
2021/11/12 00:38:09;;;;;;;121.32;59.58;;;8.60;99.90;;;;;;5026080;28;20451;-85
2021/11/12 00:45:32;;;;;;;106.97;56.70;;;8.60;99.90;;;;;;5037089;28;20397;-86
2021/11/12 00:48:09;;;;;;;93.87;53.27;;;8.60;99.90;;;;;;5017899;28;20479;-86
2021/11/12 00:55:30;;;;;;;101.23;56.47;;;8.70;99.90;;;;;;5037730;28;20451;-86
2021/11/12 00:57:58;;;;;;;104.47;53.93;;;8.80;99.90;;;;;;5048750;28;20414;-84
2021/11/12 01:00:26;;;;;;;84.15;49.92;;;8.80;99.90;;;;;;5036149;28;20389;-86
2021/11/12 01:02:52;;;;;;;91.27;52.53;;;8.80;99.90;;;;;;5031960;28;20397;-86
2021/11/12 01:05:18;;;;;;;105.53;57.45;;;8.80;99.90;;;;;;5031401;28;20392;-86
2021/11/12 01:07:45;;;;;;;119.80;60.70;;;8.80;99.90;;;;;;5015084;28;20768;-86
2021/11/12 01:10:13;;;;;;;109.38;58.88;;;8.70;99.90;;;;;;5032289;28;20481;-85
2021/11/12 01:12:40;;;;;;;131.57;63.17;;;8.70;99.90;;;;;;5017480;28;20411;-85
2021/11/12 01:15:08;;;;;;;107.35;58.00;;;8.70;99.90;;;;;;5044328;28;20397;-86
2021/11/12 01:17:34;;;;;;;117.33;63.20;;;8.70;99.90;;;;;;5032340;28;20388;-86
2021/11/12 01:19:59;;;;;;;130.13;63.70;;;8.70;99.90;;;;;;5044774;28;20925;-86
2021/11/12 01:22:25;;;;;;;112.35;60.30;;;8.70;99.90;;;;;;5013351;28;20377;-85
2021/11/12 01:24:51;;;;;;;111.63;59.50;;;8.70;99.90;;;;;;5024299;28;20970;-85
2021/11/12 01:27:16;;;;;;;110.80;59.33;;;8.70;99.90;;;;;;5030524;28;20392;-86
2021/11/12 01:29:43;;;;;;;96.50;54.80;;;8.80;99.90;;;;;;5049912;28;20395;-86
2021/11/12 01:32:22;;;;;;;113.15;58.35;;;8.80;99.90;;;;;;5043712;28;20586;-86
2021/11/12 01:34:54;;;;;;;104.07;57.97;;;8.80;99.90;;;;;;5025080;28;20497;-86
2021/11/12 01:37:21;;;;;;;84.10;50.47;;;8.80;99.90;;;;;;5019998;28;20732;-86
2021/11/12 01:39:54;;;;;;;108.20;59.03;;;8.80;99.90;;;;;;5026192;28;20895;-86
2021/11/12 01:42:21;;;;;;;89.82;55.00;;;8.80;99.90;;;;;;5024244;28;20429;-86
2021/11/12 01:44:56;;;;;;;84.50;50.88;;;8.80;99.90;;;;;;5029700;28;20390;-86
2021/11/12 01:47:30;;;;;;;93.50;51.67;;;8.90;99.90;;;;;;5013143;28;20925;-86
2021/11/12 01:52:56;;;;;;;83.75;51.63;;;8.90;99.90;;;;;;5032588;28;20404;-86
2021/11/12 01:56:07;;;;;;;83.03;50.65;;;9.00;99.90;;;;;;5047560;28;20395;-86
2021/11/12 02:00:48;;;;;;;85.65;49.97;;;9.00;99.90;;;;;;5038438;28;20409;-85
2021/11/12 02:03:14;;;;;;;100.95;56.83;;;8.90;99.90;;;;;;5030708;28;20389;-86
2021/11/12 02:05:40;;;;;;;112.15;57.15;;;8.90;99.90;;;;;;5040101;28;20978;-86
2021/11/12 02:08:05;;;;;;;110.30;57.03;;;8.90;99.90;;;;;;5042505;28;21187;-86
2021/11/12 02:10:31;;;;;;;98.30;54.20;;;8.90;99.90;;;;;;5029155;28;20459;-85
2021/11/12 02:15:24;;;;;;;97.88;54.65;;;8.90;99.90;;;;;;5030592;28;20390;-86
2021/11/12 02:18:13;;;;;;;91.93;53.22;;;8.90;99.90;;;;;;5023721;28;20429;-86
2021/11/12 02:20:54;;;;;;;92.07;50.00;;;8.90;99.90;;;;;;5027329;28;20398;-86
2021/11/12 02:23:20;;;;;;;87.77;50.93;;;8.90;99.90;;;;;;5020554;28;20471;-86
2021/11/12 02:25:45;;;;;;;77.40;47.30;;;9.00;99.90;;;;;;5036669;28;20421;-86
2021/11/12 02:28:14;;;;;;;89.18;50.72;;;9.00;99.90;;;;;;5048309;28;20428;-86
2021/11/12 02:30:42;;;;;;;78.65;47.75;;;9.00;99.90;;;;;;5027712;28;20400;-85
2021/11/12 02:33:11;;;;;;;78.38;46.47;;;9.00;99.90;;;;;;5033700;28;20429;-85
2021/11/12 02:35:41;;;;;;;87.87;49.00;;;9.00;99.90;;;;;;5032666;28;20913;-86
2021/11/12 02:38:07;;;;;;;96.45;50.50;;;9.00;99.90;;;;;;5019262;28;20392;-85
2021/11/12 02:40:35;;;;;;;82.27;46.93;;;9.00;99.90;;;;;;5017784;28;20442;-86
2021/11/12 02:43:02;;;;;;;86.05;47.83;;;9.00;99.90;;;;;;5016639;28;20391;-85
2021/11/12 02:45:29;;;;;;;99.75;48.50;;;9.10;99.90;;;;;;5038741;28;20835;-84
2021/11/12 02:47:55;;;;;;;94.95;49.10;;;9.00;99.90;;;;;;5042719;28;20392;-85
2021/11/12 02:50:21;;;;;;;97.40;47.88;;;9.00;99.90;;;;;;5040691;28;20394;-84
2021/11/12 02:52:55;;;;;;;90.63;46.10;;;9.00;99.90;;;;;;5031451;28;20397;-85
2021/11/12 02:55:21;;;;;;;90.93;47.97;;;9.00;99.90;;;;;;5042863;28;20486;-85
2021/11/12 02:57:48;;;;;;;99.45;50.03;;;9.00;99.90;;;;;;5028501;28;20385;-85
2021/11/12 03:00:15;;;;;;;101.72;50.35;;;9.00;99.90;;;;;;5011366;28;20397;-84
2021/11/12 03:02:41;;;;;;;112.82;50.70;;;9.00;99.90;;;;;;5044253;28;21000;-84
2021/11/12 03:05:07;;;;;;;103.87;49.03;;;9.00;99.90;;;;;;5035697;28;20392;-85
2021/11/12 03:07:33;;;;;;;128.18;54.30;;;9.00;99.90;;;;;;5048338;28;20398;-85
2021/11/12 03:09:58;;;;;;;103.93;49.40;;;8.90;99.90;;;;;;5034295;28;20390;-85
2021/11/12 03:12:24;;;;;;;120.90;52.78;;;9.00;99.90;;;;;;5032871;28;20408;-84
2021/11/12 03:14:50;;;;;;;121.30;53.90;;;8.90;99.90;;;;;;5030717;28;20385;-84
2021/11/12 03:17:17;;;;;;;122.95;55.65;;;8.90;99.90;;;;;;5039842;28;20907;-84
2021/11/12 03:19:44;;;;;;;138.48;57.05;;;8.80;99.90;;;;;;5043954;28;20412;-85
2021/11/12 03:22:15;;;;;;;130.88;57.13;;;8.80;99.90;;;;;;5021783;28;20390;-84
2021/11/12 03:24:46;;;;;;;141.95;57.45;;;8.80;99.90;;;;;;5042335;28;20404;-84
2021/11/12 03:59:53;;;;;;;144.13;54.97;;;9.00;99.90;;;;;;5048140;28;20495;-85
2021/11/12 05:10:40;;;;;;;154.68;55.15;;;8.90;99.90;;;;;;5035378;28;20398;-84
2021/11/12 05:43:34;;;;;;;143.68;53.15;;;8.90;99.90;;;;;;4980273;28;20402;-85
2021/11/12 05:43:49;;;;;;;149.23;53.70;;;8.90;99.90;;;;;;5041137;28;20418;-84
2021/11/12 05:46:21;;;;;;;159.77;55.40;;;8.90;99.90;;;;;;5040137;28;20392;-84
2021/11/12 05:51:44;;;;;;;198.18;58.72;;;8.90;99.90;;;;;;5031470;28;20468;-83
2021/11/12 05:56:56;;;;;;;171.60;54.83;;;8.70;99.90;;;;;;5032256;28;20496;-84
2021/11/12 05:59:24;;;;;;;176.63;54.40;;;8.80;99.90;;;;;;5032945;28;20389;-84
2021/11/12 06:01:51;;;;;;;155.98;53.35;;;8.80;99.90;;;;;;5051462;28;20372;-84
2021/11/12 06:04:17;;;;;;;151.13;50.75;;;8.80;99.90;;;;;;5050987;28;20491;-84
2021/11/12 06:06:43;;;;;;;215.87;58.17;;;8.80;99.90;;;;;;5033812;28;20876;-82
2021/11/12 06:09:09;;;;;;;289.60;61.37;;;8.80;99.90;;;;;;5013315;28;20404;-83
2021/11/12 06:11:36;;;;;;;171.73;55.27;;;8.70;99.90;;;;;;5042156;28;20452;-84
2021/11/12 06:14:03;;;;;;;159.63;51.38;;;8.70;99.90;;;;;;5028941;28;20417;-84
2021/11/12 06:16:29;;;;;;;206.45;55.58;;;8.70;99.90;;;;;;5041777;28;20420;-84
2021/11/12 06:18:54;;;;;;;197.23;56.00;;;8.70;99.90;;;;;;5031491;28;20870;-86
2021/11/12 06:21:24;;;;;;;222.50;57.47;;;8.70;99.90;;;;;;5044290;28;20960;-85
2021/11/12 06:23:50;;;;;;;191.93;56.17;;;8.70;99.90;;;;;;5047880;28;20375;-86
2021/11/12 06:26:16;;;;;;;230.43;61.00;;;8.60;99.90;;;;;;5028748;28;20383;-84
2021/11/12 06:28:42;;;;;;;194.73;57.35;;;8.50;99.90;;;;;;5042213;28;20452;-85
2021/11/12 06:31:08;;;;;;;155.27;50.83;;;8.60;99.90;;;;;;5026883;28;20783;-86
2021/11/12 06:33:34;;;;;;;160.97;52.53;;;8.60;99.90;;;;;;5009511;28;20425;-85
2021/11/12 06:36:00;;;;;;;163.37;50.27;;;8.70;99.90;;;;;;5027492;28;20747;-86
2021/11/12 06:38:28;;;;;;;189.55;54.67;;;8.70;99.90;;;;;;5009421;28;20385;-86
2021/11/12 06:40:57;;;;;;;127.90;47.20;;;8.80;99.90;;;;;;5025516;28;20411;-86
2021/11/12 06:51:22;;;;;;;162.97;50.30;;;8.90;99.90;;;;;;5026283;28;20425;-85
2021/11/12 06:53:49;;;;;;;140.53;48.77;;;8.80;99.90;;;;;;5008520;28;20440;-86
2021/11/12 06:56:15;;;;;;;162.40;50.07;;;8.80;99.90;;;;;;5026585;28;20384;-85
2021/11/12 06:58:42;;;;;;;161.63;50.17;;;8.80;99.90;;;;;;5009308;28;20389;-85
2021/11/12 07:01:08;;;;;;;159.00;50.75;;;8.80;99.90;;;;;;5041651;28;20435;-85
2021/11/12 07:03:34;;;;;;;133.00;46.15;;;8.80;99.90;;;;;;5026649;28;20393;-85
2021/11/12 07:06:01;;;;;;;142.33;48.97;;;8.90;99.90;;;;;;5026836;28;20452;-85
2021/11/12 07:08:27;;;;;;;126.53;46.17;;;8.80;99.90;;;;;;5025155;28;20780;-85
2021/11/12 07:10:53;;;;;;;132.68;47.78;;;8.80;99.90;;;;;;5026562;28;20377;-84
2021/11/12 07:13:28;;;;;;;129.02;47.15;;;8.80;99.90;;;;;;5026495;28;20393;-85
2021/11/12 07:15:56;;;;;;;118.17;45.83;;;8.70;99.90;;;;;;5008558;28;20440;-84
2021/11/12 07:18:24;;;;;;;137.93;48.22;;;8.70;99.90;;;;;;5026204;28;20385;-85
2021/11/12 07:20:52;;;;;;;118.60;45.57;;;8.60;99.90;;;;;;5027587;28;20401;-85
2021/11/12 07:23:19;;;;;;;141.40;48.58;;;8.70;99.90;;;;;;5008529;28;20816;-84
2021/11/12 07:25:47;;;;;;;119.55;45.78;;;8.70;99.90;;;;;;5009075;28;21025;-84
2021/11/12 07:28:13;;;;;;;126.13;45.70;;;8.70;99.90;;;;;;5028210;28;20386;-84
2021/11/12 07:30:42;;;;;;;108.25;43.65;;;8.80;99.90;;;;;;5008129;28;20412;-86
2021/11/12 07:33:13;;;;;;;123.07;46.37;;;8.90;99.90;;;;;;5007912;28;20468;-85
2021/11/12 07:36:18;;;;;;;117.53;44.03;;;8.90;99.90;;;;;;5011931;28;20549;-84
2021/11/12 07:38:45;;;;;;;131.48;47.78;;;9.00;99.90;;;;;;5038728;28;20388;-85
2021/11/12 07:41:17;;;;;;;140.05;49.42;;;9.00;99.90;;;;;;5033379;28;20396;-85
2021/11/12 07:49:19;;;;;;;100.43;43.33;;;9.10;99.90;;;;;;5034316;28;20814;-83
2021/11/12 07:51:45;;;;;;;104.23;45.50;;;9.20;99.90;;;;;;5043311;28;20406;-86
2021/11/12 07:54:11;;;;;;;105.10;45.20;;;9.20;99.90;;;;;;5027971;28;20438;-83
2021/11/12 07:56:37;;;;;;;99.60;44.70;;;9.10;99.90;;;;;;5028068;28;20398;-85
2021/11/12 07:59:03;;;;;;;92.35;43.67;;;9.10;99.90;;;;;;5040089;28;20384;-84
2021/11/12 08:01:29;;;;;;;94.70;43.88;;;9.20;99.90;;;;;;5045727;28;20383;-84
2021/11/12 08:03:57;;;;;;;93.57;43.83;;;9.20;99.90;;;;;;5026268;28;20885;-84
2021/11/12 08:06:27;;;;;;;85.53;42.15;;;9.20;99.90;;;;;;5043531;28;20442;-83
2021/11/12 08:09:07;;;;;;;83.23;41.20;;;9.30;99.90;;;;;;5042617;28;20781;-83
2021/11/12 08:11:41;;;;;;;77.15;40.65;;;9.30;99.90;;;;;;5026497;28;20415;-83
2021/11/12 08:14:11;;;;;;;84.15;41.92;;;9.30;99.90;;;;;;5026525;28;20391;-83
2021/11/12 08:19:19;;;;;;;69.93;38.67;;;9.40;99.90;;;;;;5043698;28;20465;-84
2021/11/12 08:24:41;;;;;;;67.93;38.35;;;9.50;99.90;;;;;;5025137;28;20785;-86
2021/11/12 08:32:21;;;;;;;52.17;32.80;;;9.80;99.90;;;;;;5030372;28;20417;-86
2021/11/12 08:35:37;;;;;;;52.55;31.38;;;9.90;99.90;;;;;;5027827;28;20464;-86
2021/11/12 08:37:54;;;;;;;49.97;30.97;;;10.00;99.90;;;;;;5039441;28;20433;-87
2021/11/12 08:40:40;;;;;;;43.63;28.88;;;10.20;99.90;;;;;;5050735;28;20380;-86
2021/11/12 08:45:46;;;;;;;43.25;29.00;;;10.30;99.90;;;;;;5052122;28;20394;-85
2021/11/12 08:48:16;;;;;;;40.97;27.00;;;10.40;99.90;;;;;;5053352;28;20383;-85
2021/11/12 08:50:42;;;;;;;41.30;28.85;;;10.30;99.90;;;;;;5046030;28;20905;-86
2021/11/12 08:53:12;;;;;;;40.17;27.27;;;10.30;99.90;;;;;;5050804;28;20403;-85
2021/11/12 08:55:41;;;;;;;35.88;26.13;;;10.30;99.90;;;;;;5052601;28;20513;-85
2021/11/12 08:58:10;;;;;;;42.97;29.73;;;10.40;99.90;;;;;;5049809;28;20406;-86
2021/11/12 09:00:38;;;;;;;40.40;28.27;;;10.30;99.90;;;;;;5022444;28;20434;-86
2021/11/12 09:03:04;;;;;;;40.67;28.48;;;10.30;99.90;;;;;;5047327;28;20412;-84
2021/11/12 09:05:31;;;;;;;35.63;25.65;;;10.20;99.90;;;;;;5046305;28;20392;-86
2021/11/12 09:07:57;;;;;;;37.00;27.00;;;10.20;99.90;;;;;;5046669;28;20395;-86
2021/11/12 09:10:26;;;;;;;37.38;27.02;;;10.30;99.90;;;;;;5048161;28;20396;-85
2021/11/12 09:13:18;;;;;;;33.92;25.42;;;10.30;99.90;;;;;;5026149;28;20415;-86
2021/11/12 09:15:39;;;;;;;34.78;25.10;;;10.40;99.90;;;;;;5049615;28;20486;-86
2021/11/12 09:18:04;;;;;;;34.70;25.95;;;10.40;99.90;;;;;;5049250;28;20471;-86
2021/11/12 09:20:30;;;;;;;36.43;26.17;;;10.50;99.90;;;;;;5030927;28;20442;-85
2021/11/12 09:22:59;;;;;;;33.95;24.95;;;10.40;99.90;;;;;;5047324;28;20376;-86
2021/11/12 09:25:25;;;;;;;33.83;24.97;;;10.40;99.90;;;;;;5048738;28;20360;-86
2021/11/12 09:27:51;;;;;;;37.17;26.33;;;10.60;99.90;;;;;;5046766;28;21927;-86
2021/11/12 09:30:24;;;;;;;33.88;25.60;;;10.70;99.90;;;;;;5047439;28;20376;-87
2021/11/12 09:32:56;;;;;;;32.85;23.75;;;10.80;99.90;;;;;;5048333;28;20407;-86
2021/11/12 09:35:23;;;;;;;34.15;24.05;;;10.70;99.90;;;;;;5046026;28;20476;-87
2021/11/12 09:37:49;;;;;;;35.85;24.90;;;10.70;99.90;;;;;;5048156;28;20388;-85
2021/11/12 09:40:15;;;;;;;36.47;25.83;;;10.80;99.90;;;;;;5048944;28;20445;-84
2021/11/12 09:42:42;;;;;;;33.70;23.63;;;10.80;99.90;;;;;;5012980;28;20388;-85
2021/11/12 09:45:10;;;;;;;38.20;26.15;;;10.90;99.90;;;;;;5013488;28;20408;-85
2021/11/12 09:47:36;;;;;;;38.95;27.05;;;10.80;99.90;;;;;;5013096;28;20389;-84
2021/11/12 09:50:07;;;;;;;34.80;24.95;;;10.70;99.90;;;;;;5012945;28;20389;-84
2021/11/12 09:52:32;;;;;;;32.33;23.23;;;10.70;99.90;;;;;;5013505;28;20412;-86
2021/11/12 09:54:59;;;;;;;30.50;22.67;;;10.60;99.90;;;;;;5049909;28;20390;-85
2021/11/12 09:57:26;;;;;;;31.20;23.10;;;10.70;99.90;;;;;;5066110;28;20927;-86
2021/11/12 09:59:56;;;;;;;27.95;21.38;;;10.90;99.90;;;;;;5049435;28;20924;-84
2021/11/12 10:02:23;;;;;;;28.02;20.55;;;10.90;99.90;;;;;;5049093;28;20390;-85
2021/11/12 10:04:49;;;;;;;25.08;19.13;;;10.80;99.90;;;;;;5049164;28;20429;-84
2021/11/12 10:07:16;;;;;;;27.37;21.03;;;10.80;99.90;;;;;;5065376;28;21230;-85
2021/11/12 10:09:44;;;;;;;29.98;22.65;;;10.90;99.90;;;;;;5049978;28;20379;-85
2021/11/12 10:12:11;;;;;;;36.70;26.60;;;10.70;99.90;;;;;;5050530;28;20412;-84
2021/11/12 10:14:51;;;;;;;35.25;25.85;;;10.50;99.90;;;;;;5050142;28;20396;-85
2021/11/12 10:17:19;;;;;;;34.03;24.60;;;10.30;99.90;;;;;;5031487;28;20409;-84
2021/11/12 10:19:53;;;;;;;31.05;23.85;;;10.40;99.90;;;;;;5042947;28;20385;-84
2021/11/12 10:22:24;;;;;;;30.15;22.23;;;10.60;99.90;;;;;;5030248;28;20479;-85
2021/11/12 10:24:50;;;;;;;28.20;20.90;;;10.90;99.90;;;;;;5047577;28;20463;-84
2021/11/12 10:27:18;;;;;;;28.27;22.03;;;11.00;99.90;;;;;;5050469;28;20479;-86
2021/11/12 10:29:53;;;;;;;23.58;19.17;;;11.00;99.90;;;;;;5049734;28;20403;-84
2021/11/12 10:32:19;;;;;;;24.10;17.88;;;11.10;99.90;;;;;;5049772;28;20453;-85
2021/11/12 10:34:48;;;;;;;22.40;18.55;;;11.10;99.90;;;;;;5036838;28;20932;-85
2021/11/12 10:37:21;;;;;;;22.02;18.63;;;11.20;99.90;;;;;;5049605;28;21174;-85
2021/11/12 10:39:56;;;;;;;21.77;17.58;;;11.30;99.90;;;;;;5056309;28;20395;-85
2021/11/12 10:42:28;;;;;;;21.80;18.13;;;11.40;99.90;;;;;;5050154;28;20450;-85
2021/11/12 10:44:57;;;;;;;23.23;19.17;;;11.30;99.90;;;;;;5054821;28;20396;-85
2021/11/12 10:47:25;;;;;;;24.17;19.92;;;11.30;99.90;;;;;;5056595;28;20376;-85
2021/11/12 10:49:55;;;;;;;23.73;20.60;;;11.30;99.90;;;;;;5038877;28;20386;-86
2021/11/12 10:52:23;;;;;;;24.20;20.10;;;11.30;99.90;;;;;;5046464;28;20403;-85
2021/11/12 10:55:01;;;;;;;21.90;19.48;;;11.30;99.90;;;;;;5048116;28;20914;-85
2021/11/12 10:57:29;;;;;;;24.98;19.25;;;11.30;99.90;;;;;;5052538;28;20548;-84
2021/11/12 11:00:05;;;;;;;24.25;19.52;;;11.30;99.90;;;;;;5026877;28;20401;-83
2021/11/12 11:02:36;;;;;;;22.63;19.38;;;11.20;99.90;;;;;;5010863;28;20405;-85
2021/11/12 11:05:08;;;;;;;23.17;18.70;;;11.20;99.90;;;;;;4994758;28;20389;-85
2021/11/12 11:07:37;;;;;;;23.60;20.00;;;11.10;99.90;;;;;;5029161;28;20485;-85
2021/11/12 11:10:05;;;;;;;22.55;20.10;;;11.00;99.90;;;;;;5028476;28;20418;-84
2021/11/12 11:12:43;;;;;;;24.20;20.92;;;11.10;99.90;;;;;;5028533;28;20409;-86
2021/11/12 11:15:15;;;;;;;21.98;19.67;;;11.20;99.90;;;;;;5014768;28;20400;-85
2021/11/12 11:17:48;;;;;;;22.52;20.10;;;11.30;99.90;;;;;;5017974;28;20389;-86
2021/11/12 11:20:20;;;;;;;23.07;20.57;;;11.30;99.90;;;;;;5013566;28;20393;-84
2021/11/12 11:23:00;;;;;;;21.50;19.20;;;11.40;99.90;;;;;;5028385;28;20482;-85
2021/11/12 11:25:28;;;;;;;24.50;19.48;;;11.40;99.90;;;;;;5028887;28;20492;-85
2021/11/12 11:27:56;;;;;;;21.17;18.52;;;11.50;99.90;;;;;;5012446;28;20930;-85
2021/11/12 11:30:22;;;;;;;21.93;18.90;;;11.50;99.90;;;;;;5027580;28;20463;-85
2021/11/12 11:32:49;;;;;;;21.17;18.98;;;11.30;99.90;;;;;;5029106;28;20460;-86
2021/11/12 11:35:16;;;;;;;23.83;20.10;;;11.20;99.90;;;;;;5029686;28;20473;-84
2021/11/12 11:37:43;;;;;;;23.92;19.95;;;11.00;99.90;;;;;;5029234;28;20369;-85
2021/11/12 11:40:12;;;;;;;23.00;20.00;;;11.00;99.90;;;;;;5012071;28;20386;-86
2021/11/12 11:42:44;;;;;;;24.25;21.55;;;11.10;99.90;;;;;;5042335;28;20929;-85
2021/11/12 11:45:12;;;;;;;27.48;23.05;;;11.10;99.90;;;;;;5048317;28;20411;-86
2021/11/12 11:47:41;;;;;;;29.53;24.00;;;11.00;99.90;;;;;;5050747;28;20376;-86
2021/11/12 11:50:23;;;;;;;27.55;22.27;;;11.00;99.90;;;;;;5049484;28;20559;-84
2021/11/12 11:52:49;;;;;;;29.00;21.50;;;10.90;99.90;;;;;;5048984;28;20497;-84
2021/11/12 11:55:47;;;;;;;26.83;22.23;;;11.10;99.90;;;;;;5048503;28;20426;-85
2021/11/12 11:58:34;;;;;;;27.90;21.38;;;11.30;99.90;;;;;;5031348;28;20551;-85
2021/11/12 12:01:18;;;;;;;23.05;18.92;;;11.30;99.90;;;;;;5011706;28;20733;-86
2021/11/12 12:03:47;;;;;;;22.37;18.17;;;11.30;99.90;;;;;;5011991;28;20474;-84
2021/11/12 12:06:20;;;;;;;21.08;17.98;;;11.20;99.90;;;;;;5023934;28;20396;-85
2021/11/12 12:08:51;;;;;;;21.98;18.05;;;11.10;99.90;;;;;;5050166;28;20399;-85
2021/11/12 12:11:23;;;;;;;22.88;18.48;;;11.00;99.90;;;;;;5052335;28;20389;-85
2021/11/12 12:14:14;;;;;;;23.80;19.35;;;11.00;99.90;;;;;;5035197;28;20386;-85
2021/11/12 12:16:40;;;;;;;22.40;18.67;;;11.00;99.90;;;;;;5034177;28;20381;-87
2021/11/12 12:19:08;;;;;;;26.25;19.05;;;10.90;99.90;;;;;;5049993;28;20397;-84
2021/11/12 12:21:44;;;;;;;21.00;17.00;;;11.00;99.90;;;;;;5049166;28;20385;-86
2021/11/12 13:21:06;;;;;;;18.15;16.20;;;10.60;99.90;;;;;;5064377;28;20463;-84
2021/11/12 13:24:03;;;;;;;20.20;17.08;;;10.60;99.90;;;;;;5064996;28;20380;-84
2021/11/12 13:26:30;;;;;;;22.92;17.95;;;10.40;99.90;;;;;;5064022;28;20391;-84
2021/11/12 13:28:57;;;;;;;21.47;18.00;;;10.40;99.90;;;;;;5059748;28;20732;-85
2021/11/12 13:31:23;;;;;;;20.73;18.23;;;10.20;99.90;;;;;;5059265;28;20442;-83
2021/11/12 13:33:52;;;;;;;20.75;17.85;;;10.20;99.90;;;;;;5050403;28;20403;-85
2021/11/12 13:36:25;;;;;;;19.83;17.25;;;10.20;99.90;;;;;;5031642;28;20391;-84
2021/11/12 13:38:55;;;;;;;19.73;16.38;;;10.20;99.90;;;;;;5029975;28;20468;-84
2021/11/12 13:41:25;;;;;;;20.42;16.73;;;10.20;99.90;;;;;;5050916;28;20379;-85
2021/11/12 13:44:00;;;;;;;18.53;15.50;;;10.20;99.90;;;;;;5029749;28;20399;-85
2021/11/12 13:46:26;;;;;;;18.17;15.52;;;10.30;99.90;;;;;;5045093;28;20433;-84
2021/11/12 13:48:54;;;;;;;15.17;13.57;;;10.30;99.90;;;;;;5044624;28;20396;-85
2021/11/12 13:51:30;;;;;;;15.50;13.13;;;10.30;99.90;;;;;;5043316;28;20372;-84
2021/11/12 13:53:58;;;;;;;13.60;12.18;;;10.20;99.90;;;;;;5044409;28;20380;-85
2021/11/12 13:56:25;;;;;;;12.90;11.48;;;10.10;99.90;;;;;;5033875;28;20430;-85
2021/11/12 13:59:11;;;;;;;12.77;11.37;;;10.00;99.90;;;;;;5043329;28;20376;-85
2021/11/12 14:01:39;;;;;;;12.80;11.50;;;9.90;99.90;;;;;;5044236;28;20400;-85
2021/11/12 14:04:26;;;;;;;13.35;11.18;;;9.90;99.90;;;;;;5042914;28;20392;-85
2021/11/12 14:06:53;;;;;;;14.20;11.27;;;9.70;99.90;;;;;;5044483;28;20390;-85
2021/11/12 14:09:26;;;;;;;12.27;10.98;;;9.70;99.90;;;;;;5045740;28;20850;-85
2021/11/12 14:12:11;;;;;;;13.00;10.95;;;9.60;99.90;;;;;;5046252;28;20920;-84
2021/11/12 14:14:39;;;;;;;14.27;11.43;;;9.60;99.90;;;;;;5044451;28;20395;-85
2021/11/12 14:17:16;;;;;;;12.80;11.43;;;9.70;99.90;;;;;;5051463;28;20404;-84
2021/11/12 14:22:45;;;;;;;12.40;11.20;;;9.70;99.90;;;;;;5047851;28;20931;-81
2021/11/12 14:27:57;;;;;;;13.23;11.57;;;9.70;99.90;;;;;;5037597;28;20404;-86
2021/11/12 14:30:57;;;;;;;12.43;10.60;;;9.70;99.90;;;;;;5054066;28;20384;-83
2021/11/12 14:34:00;;;;;;;13.10;11.60;;;9.80;99.90;;;;;;5048797;28;20415;-83
2021/11/12 14:37:14;;;;;;;13.75;11.38;;;9.70;99.90;;;;;;5045261;28;20380;-84
2021/11/12 14:40:59;;;;;;;14.43;12.27;;;9.70;99.90;;;;;;5045755;28;20406;-82
2021/11/12 14:43:18;;;;;;;13.70;12.05;;;9.60;99.90;;;;;;5038258;28;20380;-83
2021/11/12 14:45:58;;;;;;;13.82;11.82;;;9.60;99.90;;;;;;5048737;28;20407;-84
2021/11/12 14:51:03;;;;;;;14.30;11.70;;;9.30;99.90;;;;;;5048226;28;20765;-84
2021/11/12 14:53:51;;;;;;;13.25;11.88;;;9.30;99.90;;;;;;5030313;28;20495;-84
2021/11/12 14:58:48;;;;;;;12.75;11.45;;;9.30;99.90;;;;;;5046650;28;20469;-83
2021/11/12 15:01:24;;;;;;;13.20;11.70;;;9.30;99.90;;;;;;5043266;28;20502;-84
2021/11/12 15:03:51;;;;;;;13.03;11.73;;;9.40;99.90;;;;;;5035824;28;20482;-84
2021/11/12 15:06:20;;;;;;;12.85;11.20;;;9.30;99.90;;;;;;5041745;28;20406;-84
2021/11/12 15:08:49;;;;;;;13.53;11.00;;;9.30;99.90;;;;;;5045128;28;20429;-83
2021/11/12 15:11:18;;;;;;;13.15;11.65;;;9.30;99.90;;;;;;5046141;28;20375;-83
2021/11/12 15:13:47;;;;;;;12.10;10.80;;;9.20;99.90;;;;;;5044913;28;20404;-84
2021/11/12 15:16:18;;;;;;;12.23;10.93;;;9.10;99.90;;;;;;5050241;28;20405;-84
2021/11/12 15:18:45;;;;;;;12.82;11.15;;;9.10;99.90;;;;;;5035166;28;20384;-83
2021/11/12 15:21:18;;;;;;;12.75;11.43;;;9.00;99.90;;;;;;5052657;28;20381;-84
2021/11/12 15:24:29;;;;;;;13.37;12.07;;;8.90;99.90;;;;;;5046865;28;20437;-82
2021/11/12 15:29:08;;;;;;;13.15;11.18;;;8.90;99.90;;;;;;5047147;28;21194;-82
2021/11/12 15:31:39;;;;;;;14.45;11.73;;;8.80;99.90;;;;;;5042979;28;20439;-84
2021/11/12 15:34:07;;;;;;;14.73;12.68;;;8.80;99.90;;;;;;5046004;28;20390;-85
2021/11/12 15:36:34;;;;;;;14.85;13.25;;;8.70;99.90;;;;;;5028620;28;20778;-84
2021/11/12 15:39:13;;;;;;;15.18;13.57;;;8.70;99.90;;;;;;5028594;28;20429;-83
2021/11/12 15:44:15;;;;;;;15.63;14.03;;;8.70;99.90;;;;;;5045054;28;20387;-83
2021/11/12 15:47:07;;;;;;;17.88;14.88;;;8.70;99.90;;;;;;5045708;28;20446;-83
2021/11/12 15:49:35;;;;;;;18.23;14.95;;;8.60;99.90;;;;;;5046296;28;20833;-83
2021/11/12 15:52:07;;;;;;;17.00;15.13;;;8.60;99.90;;;;;;5047547;28;21216;-83
2021/11/12 15:54:45;;;;;;;18.73;15.13;;;8.50;99.90;;;;;;5036993;28;20385;-82
2021/11/12 15:59:51;;;;;;;17.55;15.55;;;8.40;99.90;;;;;;5028402;28;20409;-83
2021/11/12 16:25:14;;;;;;;31.33;22.70;;;8.10;99.90;;;;;;5043696;28;20453;-84
2021/11/12 16:27:49;;;;;;;29.52;22.98;;;8.20;99.90;;;;;;5029525;28;20401;-83
2021/11/12 16:30:19;;;;;;;44.37;31.00;;;8.10;99.90;;;;;;5045666;28;20491;-84
2021/11/12 16:32:50;;;;;;;37.25;28.35;;;8.00;99.90;;;;;;5034268;28;20422;-83
2021/11/12 16:35:22;;;;;;;31.05;24.02;;;7.90;99.90;;;;;;5044626;28;20482;-83
2021/11/12 16:37:52;;;;;;;37.22;30.52;;;7.80;99.90;;;;;;5025511;28;20468;-83
2021/11/12 16:40:25;;;;;;;40.03;31.70;;;7.70;99.90;;;;;;5026397;28;20758;-85
2021/11/12 16:43:35;;;;;;;33.42;26.92;;;7.60;99.90;;;;;;5035897;28;21503;-83
2021/11/12 16:51:18;;;;;;;33.10;26.13;;;7.50;99.90;;;;;;5042680;28;20403;-84
2021/11/12 16:56:57;;;;;;;39.35;29.35;;;7.50;99.90;;;;;;4964398;28;20480;-83
2021/11/12 16:59:27;;;;;;;39.92;29.48;;;7.50;99.90;;;;;;5024103;28;20394;-82
2021/11/12 17:04:35;;;;;;;38.13;30.42;;;7.50;99.90;;;;;;5051155;28;20394;-83
2021/11/12 17:07:53;;;;;;;38.47;28.77;;;7.40;99.90;;;;;;5054969;28;20389;-84
2021/11/12 17:09:53;;;;;;;37.20;28.93;;;7.40;99.90;;;;;;5048064;28;20486;-84
2021/11/12 17:20:11;;;;;;;35.72;27.15;;;7.20;99.90;;;;;;5064048;28;20382;-82
2021/11/12 17:23:09;;;;;;;37.77;27.50;;;7.10;99.90;;;;;;5034609;28;20388;-83
2021/11/12 17:47:30;;;;;;;45.50;33.60;;;6.70;99.90;;;;;;5032796;28;20903;-82
2021/11/12 18:03:47;;;;;;;49.50;33.25;;;6.60;99.90;;;;;;5059206;28;20922;-82
2021/11/12 18:17:10;;;;;;;47.50;33.13;;;6.20;99.90;;;;;;5034547;28;20473;-83
2021/11/12 18:23:04;;;;;;;57.28;38.22;;;6.10;99.90;;;;;;4990218;28;20515;-83
2021/11/12 21:45:52;;;;;;;136.18;74.32;;;4.70;99.90;;;;;;5037931;28;20374;-83
2021/11/12 21:48:19;;;;;;;126.82;71.43;;;4.60;99.90;;;;;;5027287;28;20404;-83
2021/11/12 21:50:46;;;;;;;131.63;71.85;;;4.60;99.90;;;;;;5050450;28;20437;-83
2021/11/12 21:53:12;;;;;;;136.35;74.57;;;4.60;99.90;;;;;;5031905;28;20408;-84
2021/11/12 21:55:38;;;;;;;136.73;75.53;;;4.60;99.90;;;;;;5049572;28;20403;-85
2021/11/12 21:58:03;;;;;;;137.55;74.45;;;4.50;99.90;;;;;;5042741;28;20392;-84
2021/11/12 22:00:30;;;;;;;143.90;76.03;;;4.50;99.90;;;;;;5042296;28;20439;-85
2021/11/12 22:02:56;;;;;;;133.98;74.43;;;4.50;99.90;;;;;;5036098;28;20427;-85
2021/11/12 22:05:22;;;;;;;147.47;76.77;;;4.40;99.90;;;;;;5038423;28;20861;-84
2021/11/12 22:07:48;;;;;;;145.25;77.00;;;4.40;99.90;;;;;;5028715;28;20896;-84
2021/11/12 22:10:15;;;;;;;140.33;75.90;;;4.40;99.90;;;;;;5029117;28;20441;-84